Buoy 55904

sailwx.info

Track history (hours):
 
Tides and Currents Weather Stations Pressure Air Temp Water Temp Dewpoint Dewpoint Depression Visibility Wind Speed Wind Dir Waves Ship Positions

Drifting buoy 55904

Last reported at 2017-Dec-16 03:00 UTC. Time now 2017-Dec-16 03:42 UTC.
Position S 40°36' E 015°42'.

Date/timePositionNaut miles runAvg speedWind from/ knotsBaromVisibWave heightAir tempDewpointWater temp
2017-Dec-16 03:00S 40°36' E 015°42'2 1.9
2017-Dec-16 02:00S 40°35' E 015°44'1 1.4
2017-Dec-16 01:00S 40°35' E 015°46'1 1.5
2017-Dec-16 00:00S 40°36' E 015°48'1 1.4
2017-Dec-15 23:00S 40°36' E 015°50'2 1.8
2017-Dec-15 22:00S 40°36' E 015°52'1 1.4
2017-Dec-15 21:00S 40°36' E 015°54'2 1.8
2017-Dec-15 20:00S 40°36' E 015°56'1 1.4
2017-Dec-15 19:00S 40°36' E 015°58'1 1.4
2017-Dec-15 18:00S 40°36' E 016°00'1 1.4
2017-Dec-15 17:00S 40°36' E 016°02'1 1.5
2017-Dec-15 16:00S 40°35' E 016°04'1 1.1
2017-Dec-15 15:00S 40°35' E 016°05'2 1.5
2017-Dec-15 14:00S 40°34' E 016°06'2 1.5
2017-Dec-15 13:00S 40°32' E 016°07'2 1.8
2017-Dec-15 12:00S 40°31' E 016°09'2 2.0
2017-Dec-15 11:00S 40°29' E 016°10'2 2.3
2017-Dec-15 10:00S 40°28' E 016°12'2 1.5
2017-Dec-15 09:00S 40°26' E 016°13'2 2.0
2017-Dec-15 08:00S 40°25' E 016°14'2 1.5
2017-Dec-15 07:00S 40°23' E 016°16'2 2.0
2017-Dec-15 06:00S 40°22' E 016°17'2 1.5
2017-Dec-15 05:00S 40°20' E 016°18'2 1.9
2017-Dec-15 04:00S 40°19' E 016°19'2 1.9
2017-Dec-15 03:00S 40°17' E 016°19'2 1.9
2017-Dec-15 02:00S 40°15' E 016°20'2 1.9
2017-Dec-15 01:00S 40°13' E 016°20'2 1.9
2017-Dec-15 00:00S 40°11' E 016°21'2 1.9
2017-Dec-14 23:00S 40°10' E 016°22'2 1.8
2017-Dec-14 22:00S 40°08' E 016°22'2 1.8
2017-Dec-14 21:00S 40°06' E 016°22'2 1.8
2017-Dec-14 20:00S 40°04' E 016°22'2 1.8
2017-Dec-14 19:00S 40°02' E 016°22'2 1.9
2017-Dec-14 18:00S 40°01' E 016°21'2 1.9
2017-Dec-14 17:00S 39°59' E 016°20'1 1.3
2017-Dec-14 16:00S 39°58' E 016°20'2 2.0
2017-Dec-14 15:00S 39°56' E 016°19'2 2.0
2017-Dec-14 14:00S 39°54' E 016°17'2 2.0
2017-Dec-14 13:00S 39°52' E 016°16'2 2.0
2017-Dec-14 12:00S 39°50' E 016°15'2 2.3
2017-Dec-14 11:00S 39°49' E 016°13'2 1.5
2017-Dec-14 10:00S 39°47' E 016°12'2 2.0
2017-Dec-14 09:00S 39°46' E 016°11'2 2.0
2017-Dec-14 08:00S 39°44' E 016°10'2 1.8
2017-Dec-14 07:00S 39°43' E 016°08'2 2.0
2017-Dec-14 06:00S 39°41' E 016°07'2 1.8
2017-Dec-14 05:00S 39°40' E 016°05'2 1.5
2017-Dec-14 04:00S 39°38' E 016°04'2 1.5
2017-Dec-14 03:00S 39°38' E 016°02'2 1.8
2017-Dec-14 02:00S 39°37' E 016°00'2 1.8
2017-Dec-14 01:00S 39°35' E 015°58'2 1.8
2017-Dec-14 00:00S 39°34' E 015°56'2 1.8
2017-Dec-13 23:00S 39°33' E 015°55'2 1.5
2017-Dec-13 22:00S 39°32' E 015°53'2 1.5
2017-Dec-13 21:00S 39°32' E 015°51'2 1.5
2017-Dec-13 20:00S 39°31' E 015°49'2 1.5
2017-Dec-13 19:00S 39°31' E 015°47'2 1.5
2017-Dec-13 18:00S 39°30' E 015°46'1 1.1
2017-Dec-13 17:00S 39°29' E 015°44'1 1.4
2017-Dec-13 16:00S 39°29' E 015°43'1 1.4
2017-Dec-13 15:00S 39°29' E 015°41'1 1.4
2017-Dec-13 14:00S 39°29' E 015°39'1 1.4
2017-Dec-13 13:00S 39°29' E 015°37'1 0.9
2017-Dec-13 12:00S 39°29' E 015°36'1 1.4
2017-Dec-13 11:00S 39°29' E 015°34'2 1.5
2017-Dec-13 10:00S 39°30' E 015°32'1 0.9
2017-Dec-13 09:00S 39°30' E 015°31'1 1.1
2017-Dec-13 08:00S 39°31' E 015°30'1 1.1
2017-Dec-13 07:00S 39°31' E 015°29'1 1.1
2017-Dec-13 06:00S 39°32' E 015°28'1 0.8
2017-Dec-13 05:00S 39°32' E 015°27'1 1.3
2017-Dec-13 04:00S 39°34' E 015°26'2 1.5
2017-Dec-13 03:00S 39°35' E 015°25'2 1.5
2017-Dec-13 02:00S 39°36' E 015°24'2 2.0
2017-Dec-13 01:00S 39°38' E 015°23'1 1.1
2017-Dec-13 00:00S 39°38' E 015°22'2 1.5
2017-Dec-12 23:00S 39°40' E 015°20'2 1.5
2017-Dec-12 22:00S 39°41' E 015°19'1 1.3
2017-Dec-12 21:00S 39°42' E 015°19'2 1.5
2017-Dec-12 20:00S 39°43' E 015°17'1 1.2
2017-Dec-12 19:00S 39°44' E 015°17'1 1.3
2017-Dec-12 18:00S 39°46' E 015°17'1 1.3
2017-Dec-12 17:00S 39°47' E 015°16'1 1.3
2017-Dec-12 16:00S 39°48' E 015°16'1 1.2
2017-Dec-12 15:00S 39°49' E 015°16'1 1.3
2017-Dec-12 14:00S 39°50' E 015°15'1 1.3
2017-Dec-12 13:00S 39°52' E 015°14'1 1.2
2017-Dec-12 12:00S 39°53' E 015°14'1 1.3
2017-Dec-12 11:00S 39°54' E 015°14'1 1.2
2017-Dec-12 10:00S 39°55' E 015°14'1 1.2
2017-Dec-12 09:00S 39°56' E 015°14'1 1.2
2017-Dec-12 08:00S 39°58' E 015°14'1 1.2
2017-Dec-12 07:00S 39°59' E 015°14'1 1.2
2017-Dec-12 06:00S 40°00' E 015°14'1 1.3
2017-Dec-12 05:00S 40°01' E 015°14'1 1.3
2017-Dec-12 04:00S 40°02' E 015°15'1 1.3
2017-Dec-12 03:00S 40°04' E 015°16'1 0.6
2017-Dec-12 02:00S 40°04' E 015°16'2 1.5
2017-Dec-12 01:00S 40°05' E 015°17'1 1.3
2017-Dec-12 00:00S 40°07' E 015°17'1 1.3
2017-Dec-11 23:00S 40°08' E 015°18'1 1.3
2017-Dec-11 22:00S 40°09' E 015°19'2 1.5
2017-Dec-11 21:00S 40°10' E 015°20'2 1.5
2017-Dec-11 20:00S 40°11' E 015°21'1 1.1
2017-Dec-11 19:00S 40°12' E 015°22'2 1.5
2017-Dec-11 18:00S 40°13' E 015°23'1 1.3
2017-Dec-11 17:00S 40°14' E 015°24'1 0.8
2017-Dec-11 16:00S 40°15' E 015°25'1 0.8
2017-Dec-11 15:00S 40°16' E 015°25'1 0.8
2017-Dec-11 14:00S 40°16' E 015°26'1 1.1
2017-Dec-11 13:00S 40°17' E 015°27'1 0.9
2017-Dec-11 12:00S 40°17' E 015°28'1 1.1
2017-Dec-11 11:00S 40°17' E 015°29'0 0.5
2017-Dec-11 10:00S 40°17' E 015°30'1 0.9
2017-Dec-11 09:00S 40°17' E 015°31'1 1.5
2017-Dec-11 08:00S 40°18' E 015°33'1 1.1
2017-Dec-11 07:00S 40°17' E 015°34'1 0.9
2017-Dec-11 06:00S 40°17' E 015°35'1 0.9
2017-Dec-11 05:00S 40°17' E 015°37'1 0.9
2017-Dec-11 04:00S 40°17' E 015°38'1 0.9
2017-Dec-11 03:00S 40°17' E 015°39'1 1.1
2017-Dec-11 02:00S 40°17' E 015°40'1 1.5
2017-Dec-11 01:00S 40°16' E 015°42'1 1.1
2017-Dec-11 00:00S 40°16' E 015°43'1 1.1
2017-Dec-10 23:00S 40°15' E 015°44'2 1.5
2017-Dec-10 22:00S 40°14' E 015°46'1 1.1
2017-Dec-10 21:00S 40°13' E 015°47'2 1.5
2017-Dec-10 20:00S 40°12' E 015°48'2 1.8
2017-Dec-10 19:00S 40°11' E 015°50'2 1.5
2017-Dec-10 18:00S 40°10' E 015°51'2 2.0
2017-Dec-10 17:00S 40°08' E 015°52'2 1.5
2017-Dec-10 16:00S 40°07' E 015°53'2 2.0
2017-Dec-10 15:00S 40°05' E 015°55'2 2.0
2017-Dec-10 14:00S 40°03' E 015°56'1 1.3
2017-Dec-10 13:00S 40°02' E 015°56'2 2.0
2017-Dec-10 12:00S 40°00' E 015°58'2 1.9
2017-Dec-10 11:00S 39°58' E 015°58'2 1.9
2017-Dec-10 10:00S 39°56' E 015°59'2 2.4
2017-Dec-10 09:00S 39°54' E 015°59'2 1.9
2017-Dec-10 08:00S 39°52' E 016°00'2 1.8
2017-Dec-10 07:00S 39°50' E 016°00'2 2.4
2017-Dec-10 06:00S 39°48' E 016°00'2 1.9
2017-Dec-10 05:00S 39°46' E 015°59'2 2.4
2017-Dec-10 04:00S 39°44' E 015°59'2 1.9
2017-Dec-10 03:00S 39°42' E 015°59'2 2.4
2017-Dec-10 02:00S 39°40' E 015°58'2 2.4
2017-Dec-10 01:00S 39°37' E 015°58'3 2.6
2017-Dec-10 00:00S 39°35' E 015°56'2 2.4
2017-Dec-09 23:00S 39°32' E 015°56'2 2.4
2017-Dec-09 22:00S 39°30' E 015°55'2 2.4
2017-Dec-09 21:00S 39°28' E 015°55'2 1.9
2017-Dec-09 20:00S 39°26' E 015°54'2 2.4
2017-Dec-09 19:00S 39°23' E 015°53'2 1.9
2017-Dec-09 18:00S 39°22' E 015°53'2 1.5
2017-Dec-09 17:00S 39°20' E 015°52'2 2.0
2017-Dec-09 16:00S 39°19' E 015°50'2 2.0
2017-Dec-09 15:00S 39°17' E 015°49'2 2.0
2017-Dec-09 14:00S 39°15' E 015°48'2 1.8
2017-Dec-09 13:00S 39°14' E 015°46'2 2.3
2017-Dec-09 12:00S 39°12' E 015°44'3 2.6
2017-Dec-09 11:00S 39°10' E 015°42'2 2.3
2017-Dec-09 10:00S 39°08' E 015°40'3 2.8
2017-Dec-09 09:00S 39°06' E 015°38'2 2.3
2017-Dec-09 08:00S 39°04' E 015°37'3 2.6
2017-Dec-09 07:00S 39°02' E 015°34'2 2.3
2017-Dec-09 06:00S 39°01' E 015°32'2 2.3
2017-Dec-09 05:00S 38°59' E 015°31'2 1.8
2017-Dec-09 04:00S 38°58' E 015°29'2 2.3
2017-Dec-09 03:00S 38°56' E 015°27'2 1.5
2017-Dec-09 02:00S 38°55' E 015°26'2 1.8
2017-Dec-09 01:00S 38°53' E 015°24'2 1.5
2017-Dec-09 00:00S 38°53' E 015°22'2 1.8
2017-Dec-08 23:00S 38°52' E 015°20'1 1.1
2017-Dec-08 22:00S 38°51' E 015°19'2 1.5
2017-Dec-08 21:00S 38°50' E 015°17'2 1.5
2017-Dec-08 20:00S 38°50' E 015°16'2 1.5
2017-Dec-08 19:00S 38°49' E 015°14'2 1.5
2017-Dec-08 18:00S 38°49' E 015°12'2 1.5
2017-Dec-08 17:00S 38°48' E 015°10'2 1.5
2017-Dec-08 16:00S 38°47' E 015°08'1 1.4
2017-Dec-08 15:00S 38°47' E 015°07'1 1.1
2017-Dec-08 14:00S 38°47' E 015°05'1 1.4
2017-Dec-08 13:00S 38°47' E 015°04'1 1.4
2017-Dec-08 12:00S 38°47' E 015°02'1 0.9
2017-Dec-08 11:00S 38°47' E 015°01'1 1.4
2017-Dec-08 10:00S 38°47' E 014°59'1 1.4
2017-Dec-08 09:00S 38°47' E 014°57'1 0.9
2017-Dec-08 08:00S 38°47' E 014°56'1 0.9
2017-Dec-08 07:00S 38°47' E 014°55'2 1.5
2017-Dec-08 06:00S 38°46' E 014°53'1 1.1
2017-Dec-08 05:00S 38°46' E 014°52'0 0.5
2017-Dec-08 04:00S 38°46' E 014°51'1 1.1
2017-Dec-08 03:00S 38°45' E 014°50'1 0.8
2017-Dec-08 02:00S 38°44' E 014°49'1 0.8
2017-Dec-08 01:00S 38°44' E 014°49'1 0.9
2017-Dec-08 00:00S 38°44' E 014°47'1 0.8
2017-Dec-07 23:00S 38°43' E 014°47'1 0.8
2017-Dec-07 22:00S 38°43' E 014°46'0 0.5
2017-Dec-07 21:00S 38°43' E 014°46'1 1.1
2017-Dec-07 20:00S 38°42' E 014°44'1 0.8
2017-Dec-07 19:00S 38°41' E 014°44'0 0.5
2017-Dec-07 18:00S 38°41' E 014°43'1 0.8
2017-Dec-07 17:00S 38°41' E 014°43'1 0.8
2017-Dec-07 16:00S 38°40' E 014°42'0 0.5
2017-Dec-07 15:00S 38°40' E 014°41'1 0.8
2017-Dec-07 14:00S 38°40' E 014°41'1 0.8
2017-Dec-07 13:00S 38°39' E 014°40'1 0.9
2017-Dec-07 12:00S 38°39' E 014°39'1 0.8
2017-Dec-07 11:00S 38°38' E 014°38'1 0.8
2017-Dec-07 10:00S 38°38' E 014°38'1 0.8
2017-Dec-07 09:00S 38°37' E 014°37'1 0.8
2017-Dec-07 08:00S 38°37' E 014°37'1 1.1
2017-Dec-07 07:00S 38°36' E 014°35'1 0.8
2017-Dec-07 06:00S 38°35' E 014°35'1 0.6
2017-Dec-07 05:00S 38°35' E 014°35'0 0.5
2017-Dec-07 04:00S 38°35' E 014°34'1 0.8
2017-Dec-07 03:00S 38°34' E 014°34'1 0.8
2017-Dec-07 02:00S 38°34' E 014°33'1 0.8
2017-Dec-07 01:00S 38°33' E 014°32'0 0.5
2017-Dec-07 00:00S 38°33' E 014°32'0 0.5
2017-Dec-06 23:00S 38°33' E 014°31'0 0.5
2017-Dec-06 22:00S 38°33' E 014°31'1 0.8
2017-Dec-06 21:00S 38°32' E 014°30'1 0.9
2017-Dec-06 20:00S 38°32' E 014°29'1 0.8
2017-Dec-06 19:00S 38°32' E 014°28'1 0.8
2017-Dec-06 18:00S 38°31' E 014°28'0 0.5
2017-Dec-06 17:00S 38°31' E 014°27'1 0.6
2017-Dec-06 16:00S 38°31' E 014°27'1 0.8
2017-Dec-06 15:00S 38°30' E 014°26'0 0.5
2017-Dec-06 14:00S 38°30' E 014°26'1 0.8
2017-Dec-06 13:00S 38°29' E 014°25'0 0.5
2017-Dec-06 12:00S 38°29' E 014°25'1 0.9
2017-Dec-06 11:00S 38°29' E 014°23'0 0.0
2017-Dec-06 10:00S 38°29' E 014°23'1 0.8
2017-Dec-06 09:00S 38°29' E 014°23'0 0.0
2017-Dec-06 08:00S 38°29' E 014°23'0 0.5
2017-Dec-06 07:00S 38°29' E 014°22'0 0.0
2017-Dec-06 06:00S 38°29' E 014°22'0 0.5
2017-Dec-06 05:00S 38°29' E 014°22'0 0.0
2017-Dec-06 04:00S 38°29' E 014°22'1 0.8
2017-Dec-06 03:00S 38°28' E 014°21'  
Track history (hours):
 
Tides and Currents Weather Stations Pressure Air Temp Water Temp Dewpoint Dewpoint Depression Visibility Wind Speed Wind Dir Waves Ship Positions

Drifting buoy 55904

Last reported at 2017-Dec-16 03:00 UTC. Time now 2017-Dec-16 03:42 UTC.
Position S 40°36' E 015°42'.

Date/timePositionNaut miles runAvg speedWind from/ knotsBaromVisibWave heightAir tempDewpointWater temp
2017-Dec-16 03:00S 40°36' E 015°42'2 1.9
2017-Dec-16 02:00S 40°35' E 015°44'1 1.4
2017-Dec-16 01:00S 40°35' E 015°46'1 1.5
2017-Dec-16 00:00S 40°36' E 015°48'1 1.4
2017-Dec-15 23:00S 40°36' E 015°50'2 1.8
2017-Dec-15 22:00S 40°36' E 015°52'1 1.4
2017-Dec-15 21:00S 40°36' E 015°54'2 1.8
2017-Dec-15 20:00S 40°36' E 015°56'1 1.4
2017-Dec-15 19:00S 40°36' E 015°58'1 1.4
2017-Dec-15 18:00S 40°36' E 016°00'1 1.4
2017-Dec-15 17:00S 40°36' E 016°02'1 1.5
2017-Dec-15 16:00S 40°35' E 016°04'1 1.1
2017-Dec-15 15:00S 40°35' E 016°05'2 1.5
2017-Dec-15 14:00S 40°34' E 016°06'2 1.5
2017-Dec-15 13:00S 40°32' E 016°07'2 1.8
2017-Dec-15 12:00S 40°31' E 016°09'2 2.0
2017-Dec-15 11:00S 40°29' E 016°10'2 2.3
2017-Dec-15 10:00S 40°28' E 016°12'2 1.5
2017-Dec-15 09:00S 40°26' E 016°13'2 2.0
2017-Dec-15 08:00S 40°25' E 016°14'2 1.5
2017-Dec-15 07:00S 40°23' E 016°16'2 2.0
2017-Dec-15 06:00S 40°22' E 016°17'2 1.5
2017-Dec-15 05:00S 40°20' E 016°18'2 1.9
2017-Dec-15 04:00S 40°19' E 016°19'2 1.9
2017-Dec-15 03:00S 40°17' E 016°19'2 1.9
2017-Dec-15 02:00S 40°15' E 016°20'2 1.9
2017-Dec-15 01:00S 40°13' E 016°20'2 1.9
2017-Dec-15 00:00S 40°11' E 016°21'2 1.9
2017-Dec-14 23:00S 40°10' E 016°22'2 1.8
2017-Dec-14 22:00S 40°08' E 016°22'2 1.8
2017-Dec-14 21:00S 40°06' E 016°22'2 1.8
2017-Dec-14 20:00S 40°04' E 016°22'2 1.8
2017-Dec-14 19:00S 40°02' E 016°22'2 1.9
2017-Dec-14 18:00S 40°01' E 016°21'2 1.9
2017-Dec-14 17:00S 39°59' E 016°20'1 1.3
2017-Dec-14 16:00S 39°58' E 016°20'2 2.0
2017-Dec-14 15:00S 39°56' E 016°19'2 2.0
2017-Dec-14 14:00S 39°54' E 016°17'2 2.0
2017-Dec-14 13:00S 39°52' E 016°16'2 2.0
2017-Dec-14 12:00S 39°50' E 016°15'2 2.3
2017-Dec-14 11:00S 39°49' E 016°13'2 1.5
2017-Dec-14 10:00S 39°47' E 016°12'2 2.0
2017-Dec-14 09:00S 39°46' E 016°11'2 2.0
2017-Dec-14 08:00S 39°44' E 016°10'2 1.8
2017-Dec-14 07:00S 39°43' E 016°08'2 2.0
2017-Dec-14 06:00S 39°41' E 016°07'2 1.8
2017-Dec-14 05:00S 39°40' E 016°05'2 1.5
2017-Dec-14 04:00S 39°38' E 016°04'2 1.5
2017-Dec-14 03:00S 39°38' E 016°02'2 1.8
2017-Dec-14 02:00S 39°37' E 016°00'2 1.8
2017-Dec-14 01:00S 39°35' E 015°58'2 1.8
2017-Dec-14 00:00S 39°34' E 015°56'2 1.8
2017-Dec-13 23:00S 39°33' E 015°55'2 1.5
2017-Dec-13 22:00S 39°32' E 015°53'2 1.5
2017-Dec-13 21:00S 39°32' E 015°51'2 1.5
2017-Dec-13 20:00S 39°31' E 015°49'2 1.5
2017-Dec-13 19:00S 39°31' E 015°47'2 1.5
2017-Dec-13 18:00S 39°30' E 015°46'1 1.1
2017-Dec-13 17:00S 39°29' E 015°44'1 1.4
2017-Dec-13 16:00S 39°29' E 015°43'1 1.4
2017-Dec-13 15:00S 39°29' E 015°41'1 1.4
2017-Dec-13 14:00S 39°29' E 015°39'1 1.4
2017-Dec-13 13:00S 39°29' E 015°37'1 0.9
2017-Dec-13 12:00S 39°29' E 015°36'1 1.4
2017-Dec-13 11:00S 39°29' E 015°34'2 1.5
2017-Dec-13 10:00S 39°30' E 015°32'1 0.9
2017-Dec-13 09:00S 39°30' E 015°31'1 1.1
2017-Dec-13 08:00S 39°31' E 015°30'1 1.1
2017-Dec-13 07:00S 39°31' E 015°29'1 1.1
2017-Dec-13 06:00S 39°32' E 015°28'1 0.8
2017-Dec-13 05:00S 39°32' E 015°27'1 1.3
2017-Dec-13 04:00S 39°34' E 015°26'2 1.5
2017-Dec-13 03:00S 39°35' E 015°25'2 1.5
2017-Dec-13 02:00S 39°36' E 015°24'2 2.0
2017-Dec-13 01:00S 39°38' E 015°23'1 1.1
2017-Dec-13 00:00S 39°38' E 015°22'2 1.5
2017-Dec-12 23:00S 39°40' E 015°20'2 1.5
2017-Dec-12 22:00S 39°41' E 015°19'1 1.3
2017-Dec-12 21:00S 39°42' E 015°19'2 1.5
2017-Dec-12 20:00S 39°43' E 015°17'1 1.2
2017-Dec-12 19:00S 39°44' E 015°17'1 1.3
2017-Dec-12 18:00S 39°46' E 015°17'1 1.3
2017-Dec-12 17:00S 39°47' E 015°16'1 1.3
2017-Dec-12 16:00S 39°48' E 015°16'1 1.2
2017-Dec-12 15:00S 39°49' E 015°16'1 1.3
2017-Dec-12 14:00S 39°50' E 015°15'1 1.3
2017-Dec-12 13:00S 39°52' E 015°14'1 1.2
2017-Dec-12 12:00S 39°53' E 015°14'1 1.3
2017-Dec-12 11:00S 39°54' E 015°14'1 1.2
2017-Dec-12 10:00S 39°55' E 015°14'1 1.2
2017-Dec-12 09:00S 39°56' E 015°14'1 1.2
2017-Dec-12 08:00S 39°58' E 015°14'1 1.2
2017-Dec-12 07:00S 39°59' E 015°14'1 1.2
2017-Dec-12 06:00S 40°00' E 015°14'1 1.3
2017-Dec-12 05:00S 40°01' E 015°14'1 1.3
2017-Dec-12 04:00S 40°02' E 015°15'1 1.3
2017-Dec-12 03:00S 40°04' E 015°16'1 0.6
2017-Dec-12 02:00S 40°04' E 015°16'2 1.5
2017-Dec-12 01:00S 40°05' E 015°17'1 1.3
2017-Dec-12 00:00S 40°07' E 015°17'1 1.3
2017-Dec-11 23:00S 40°08' E 015°18'1 1.3
2017-Dec-11 22:00S 40°09' E 015°19'2 1.5
2017-Dec-11 21:00S 40°10' E 015°20'2 1.5
2017-Dec-11 20:00S 40°11' E 015°21'1 1.1
2017-Dec-11 19:00S 40°12' E 015°22'2 1.5
2017-Dec-11 18:00S 40°13' E 015°23'1 1.3
2017-Dec-11 17:00S 40°14' E 015°24'1 0.8
2017-Dec-11 16:00S 40°15' E 015°25'1 0.8
2017-Dec-11 15:00S 40°16' E 015°25'1 0.8
2017-Dec-11 14:00S 40°16' E 015°26'1 1.1
2017-Dec-11 13:00S 40°17' E 015°27'1 0.9
2017-Dec-11 12:00S 40°17' E 015°28'1 1.1
2017-Dec-11 11:00S 40°17' E 015°29'0 0.5
2017-Dec-11 10:00S 40°17' E 015°30'1 0.9
2017-Dec-11 09:00S 40°17' E 015°31'1 1.5
2017-Dec-11 08:00S 40°18' E 015°33'1 1.1
2017-Dec-11 07:00S 40°17' E 015°34'1 0.9
2017-Dec-11 06:00S 40°17' E 015°35'1 0.9
2017-Dec-11 05:00S 40°17' E 015°37'1 0.9
2017-Dec-11 04:00S 40°17' E 015°38'1 0.9
2017-Dec-11 03:00S 40°17' E 015°39'1 1.1
2017-Dec-11 02:00S 40°17' E 015°40'1 1.5
2017-Dec-11 01:00S 40°16' E 015°42'1 1.1
2017-Dec-11 00:00S 40°16' E 015°43'1 1.1
2017-Dec-10 23:00S 40°15' E 015°44'2 1.5
2017-Dec-10 22:00S 40°14' E 015°46'1 1.1
2017-Dec-10 21:00S 40°13' E 015°47'2 1.5
2017-Dec-10 20:00S 40°12' E 015°48'2 1.8
2017-Dec-10 19:00S 40°11' E 015°50'2 1.5
2017-Dec-10 18:00S 40°10' E 015°51'2 2.0
2017-Dec-10 17:00S 40°08' E 015°52'2 1.5
2017-Dec-10 16:00S 40°07' E 015°53'2 2.0
2017-Dec-10 15:00S 40°05' E 015°55'2 2.0
2017-Dec-10 14:00S 40°03' E 015°56'1 1.3
2017-Dec-10 13:00S 40°02' E 015°56'2 2.0
2017-Dec-10 12:00S 40°00' E 015°58'2 1.9
2017-Dec-10 11:00S 39°58' E 015°58'2 1.9
2017-Dec-10 10:00S 39°56' E 015°59'2 2.4
2017-Dec-10 09:00S 39°54' E 015°59'2 1.9
2017-Dec-10 08:00S 39°52' E 016°00'2 1.8
2017-Dec-10 07:00S 39°50' E 016°00'2 2.4
2017-Dec-10 06:00S 39°48' E 016°00'2 1.9
2017-Dec-10 05:00S 39°46' E 015°59'2 2.4
2017-Dec-10 04:00S 39°44' E 015°59'2 1.9
2017-Dec-10 03:00S 39°42' E 015°59'2 2.4
2017-Dec-10 02:00S 39°40' E 015°58'2 2.4
2017-Dec-10 01:00S 39°37' E 015°58'3 2.6
2017-Dec-10 00:00S 39°35' E 015°56'2 2.4
2017-Dec-09 23:00S 39°32' E 015°56'2 2.4
2017-Dec-09 22:00S 39°30' E 015°55'2 2.4
2017-Dec-09 21:00S 39°28' E 015°55'2 1.9
2017-Dec-09 20:00S 39°26' E 015°54'2 2.4
2017-Dec-09 19:00S 39°23' E 015°53'2 1.9
2017-Dec-09 18:00S 39°22' E 015°53'2 1.5
2017-Dec-09 17:00S 39°20' E 015°52'2 2.0
2017-Dec-09 16:00S 39°19' E 015°50'2 2.0
2017-Dec-09 15:00S 39°17' E 015°49'2 2.0
2017-Dec-09 14:00S 39°15' E 015°48'2 1.8
2017-Dec-09 13:00S 39°14' E 015°46'2 2.3
2017-Dec-09 12:00S 39°12' E 015°44'3 2.6
2017-Dec-09 11:00S 39°10' E 015°42'2 2.3
2017-Dec-09 10:00S 39°08' E 015°40'3 2.8
2017-Dec-09 09:00S 39°06' E 015°38'2 2.3
2017-Dec-09 08:00S 39°04' E 015°37'3 2.6
2017-Dec-09 07:00S 39°02' E 015°34'2 2.3
2017-Dec-09 06:00S 39°01' E 015°32'2 2.3
2017-Dec-09 05:00S 38°59' E 015°31'2 1.8
2017-Dec-09 04:00S 38°58' E 015°29'2 2.3
2017-Dec-09 03:00S 38°56' E 015°27'2 1.5
2017-Dec-09 02:00S 38°55' E 015°26'2 1.8
2017-Dec-09 01:00S 38°53' E 015°24'2 1.5
2017-Dec-09 00:00S 38°53' E 015°22'2 1.8
2017-Dec-08 23:00S 38°52' E 015°20'1 1.1
2017-Dec-08 22:00S 38°51' E 015°19'2 1.5
2017-Dec-08 21:00S 38°50' E 015°17'2 1.5
2017-Dec-08 20:00S 38°50' E 015°16'2 1.5
2017-Dec-08 19:00S 38°49' E 015°14'2 1.5
2017-Dec-08 18:00S 38°49' E 015°12'2 1.5
2017-Dec-08 17:00S 38°48' E 015°10'2 1.5
2017-Dec-08 16:00S 38°47' E 015°08'1 1.4
2017-Dec-08 15:00S 38°47' E 015°07'1 1.1
2017-Dec-08 14:00S 38°47' E 015°05'1 1.4
2017-Dec-08 13:00S 38°47' E 015°04'1 1.4
2017-Dec-08 12:00S 38°47' E 015°02'1 0.9
2017-Dec-08 11:00S 38°47' E 015°01'1 1.4
2017-Dec-08 10:00S 38°47' E 014°59'1 1.4
2017-Dec-08 09:00S 38°47' E 014°57'1 0.9
2017-Dec-08 08:00S 38°47' E 014°56'1 0.9
2017-Dec-08 07:00S 38°47' E 014°55'2 1.5
2017-Dec-08 06:00S 38°46' E 014°53'1 1.1
2017-Dec-08 05:00S 38°46' E 014°52'0 0.5
2017-Dec-08 04:00S 38°46' E 014°51'1 1.1
2017-Dec-08 03:00S 38°45' E 014°50'1 0.8
2017-Dec-08 02:00S 38°44' E 014°49'1 0.8
2017-Dec-08 01:00S 38°44' E 014°49'1 0.9
2017-Dec-08 00:00S 38°44' E 014°47'1 0.8
2017-Dec-07 23:00S 38°43' E 014°47'1 0.8
2017-Dec-07 22:00S 38°43' E 014°46'0 0.5
2017-Dec-07 21:00S 38°43' E 014°46'1 1.1
2017-Dec-07 20:00S 38°42' E 014°44'1 0.8
2017-Dec-07 19:00S 38°41' E 014°44'0 0.5
2017-Dec-07 18:00S 38°41' E 014°43'1 0.8
2017-Dec-07 17:00S 38°41' E 014°43'1 0.8
2017-Dec-07 16:00S 38°40' E 014°42'0 0.5
2017-Dec-07 15:00S 38°40' E 014°41'1 0.8
2017-Dec-07 14:00S 38°40' E 014°41'1 0.8
2017-Dec-07 13:00S 38°39' E 014°40'1 0.9
2017-Dec-07 12:00S 38°39' E 014°39'1 0.8
2017-Dec-07 11:00S 38°38' E 014°38'1 0.8
2017-Dec-07 10:00S 38°38' E 014°38'1 0.8
2017-Dec-07 09:00S 38°37' E 014°37'1 0.8
2017-Dec-07 08:00S 38°37' E 014°37'1 1.1
2017-Dec-07 07:00S 38°36' E 014°35'1 0.8
2017-Dec-07 06:00S 38°35' E 014°35'1 0.6
2017-Dec-07 05:00S 38°35' E 014°35'0 0.5
2017-Dec-07 04:00S 38°35' E 014°34'1 0.8
2017-Dec-07 03:00S 38°34' E 014°34'1 0.8
2017-Dec-07 02:00S 38°34' E 014°33'1 0.8
2017-Dec-07 01:00S 38°33' E 014°32'0 0.5
2017-Dec-07 00:00S 38°33' E 014°32'0 0.5
2017-Dec-06 23:00S 38°33' E 014°31'0 0.5
2017-Dec-06 22:00S 38°33' E 014°31'1 0.8
2017-Dec-06 21:00S 38°32' E 014°30'1 0.9
2017-Dec-06 20:00S 38°32' E 014°29'1 0.8
2017-Dec-06 19:00S 38°32' E 014°28'1 0.8
2017-Dec-06 18:00S 38°31' E 014°28'0 0.5
2017-Dec-06 17:00S 38°31' E 014°27'1 0.6
2017-Dec-06 16:00S 38°31' E 014°27'1 0.8
2017-Dec-06 15:00S 38°30' E 014°26'0 0.5
2017-Dec-06 14:00S 38°30' E 014°26'1 0.8
2017-Dec-06 13:00S 38°29' E 014°25'0 0.5
2017-Dec-06 12:00S 38°29' E 014°25'1 0.9
2017-Dec-06 11:00S 38°29' E 014°23'0 0.0
2017-Dec-06 10:00S 38°29' E 014°23'1 0.8
2017-Dec-06 09:00S 38°29' E 014°23'0 0.0
2017-Dec-06 08:00S 38°29' E 014°23'0 0.5
2017-Dec-06 07:00S 38°29' E 014°22'0 0.0
2017-Dec-06 06:00S 38°29' E 014°22'0 0.5
2017-Dec-06 05:00S 38°29' E 014°22'0 0.0
2017-Dec-06 04:00S 38°29' E 014°22'1 0.8
2017-Dec-06 03:00S 38°28' E 014°21'  

Dump ship's entire track history